Time;durP1;ratioP1;P1;durP2;ratioP2;P2;SDS_P1;SDS_P2;PMS_P1;PMS_P2;Temp;Humidity;BMP_temperature;BMP_pressure;BME280_temperature;BME280_humidity;BME280_pressure;Samples;Min_cycle;Max_cycle;Signal;HPM_P1;HPM_P2
2022/04/13 00:01:42;;;;;;;4.57;3.47;;;14.20;99.90;;;;;;5036852;28;20439;-69
2022/04/13 00:04:08;;;;;;;3.00;2.80;;;14.10;99.90;;;;;;5052265;28;20426;-67
2022/04/13 00:06:38;;;;;;;3.33;3.03;;;14.20;99.90;;;;;;5053666;28;20408;-67
2022/04/13 00:09:06;;;;;;;5.23;2.70;;;14.30;99.90;;;;;;5055378;28;20399;-66
2022/04/13 00:11:31;;;;;;;4.00;3.30;;;14.20;99.90;;;;;;5055044;28;20539;-66
2022/04/13 00:13:57;;;;;;;3.80;2.90;;;14.10;99.90;;;;;;5055349;28;20436;-66
2022/04/13 00:16:22;;;;;;;3.50;3.07;;;14.20;99.90;;;;;;5055690;28;20167;-67
2022/04/13 00:18:48;;;;;;;3.30;2.80;;;14.40;99.90;;;;;;5054840;28;20255;-67
2022/04/13 00:21:13;;;;;;;3.33;3.03;;;14.40;99.90;;;;;;5055638;28;20538;-67
2022/04/13 00:23:39;;;;;;;4.47;3.43;;;14.50;99.90;;;;;;5041607;28;20187;-67
2022/04/13 00:26:04;;;;;;;3.23;2.70;;;14.40;99.90;;;;;;5035005;28;20177;-67
2022/04/13 00:28:30;;;;;;;5.03;2.90;;;14.40;99.90;;;;;;5035552;28;20170;-67
2022/04/13 00:30:56;;;;;;;3.53;2.77;;;14.30;99.90;;;;;;5035365;28;20206;-67
2022/04/13 00:33:21;;;;;;;4.67;2.93;;;14.20;99.90;;;;;;5036674;28;20217;-67
2022/04/13 00:35:47;;;;;;;3.50;3.20;;;14.20;99.90;;;;;;5035397;28;20178;-67
2022/04/13 00:38:13;;;;;;;4.60;3.00;;;14.20;99.90;;;;;;5035625;28;20254;-67
2022/04/13 00:40:42;;;;;;;3.77;2.43;;;14.30;99.90;;;;;;5035258;28;20170;-67
2022/04/13 00:43:08;;;;;;;2.97;2.73;;;14.30;99.90;;;;;;5050051;28;20197;-67
2022/04/13 00:45:34;;;;;;;3.30;2.60;;;14.20;99.90;;;;;;5054794;28;20499;-67
2022/04/13 00:48:02;;;;;;;3.90;2.90;;;14.20;99.90;;;;;;5053465;28;20937;-67
2022/04/13 00:50:28;;;;;;;3.20;2.93;;;14.30;99.90;;;;;;5036045;28;20413;-67
2022/04/13 00:52:56;;;;;;;3.67;3.33;;;14.20;99.90;;;;;;5034798;28;20923;-67
2022/04/13 00:55:24;;;;;;;5.70;3.27;;;14.10;99.90;;;;;;5035037;28;20196;-68
2022/04/13 00:57:51;;;;;;;3.07;2.80;;;14.10;99.90;;;;;;5034894;28;20395;-67
2022/04/13 01:00:19;;;;;;;4.90;3.03;;;14.10;99.90;;;;;;5034852;28;20395;-67
2022/04/13 01:02:45;;;;;;;6.93;3.37;;;14.10;99.90;;;;;;5034878;28;20432;-67
2022/04/13 01:05:12;;;;;;;3.33;2.70;;;14.00;99.90;;;;;;5054694;28;20411;-67
2022/04/13 01:07:39;;;;;;;3.97;3.27;;;14.00;99.90;;;;;;5054393;28;20434;-67
2022/04/13 01:10:07;;;;;;;3.70;3.10;;;14.10;99.90;;;;;;5054219;28;20422;-67
2022/04/13 01:12:33;;;;;;;3.33;2.80;;;14.00;99.90;;;;;;5053576;28;20474;-67
2022/04/13 01:14:59;;;;;;;3.10;2.80;;;14.00;99.90;;;;;;5054414;28;20400;-67
2022/04/13 01:17:25;;;;;;;2.80;2.60;;;14.00;99.90;;;;;;5053605;28;20407;-67
2022/04/13 01:19:51;;;;;;;4.20;2.40;;;13.90;99.90;;;;;;5054099;28;20487;-67
2022/04/13 01:22:24;;;;;;;3.50;3.20;;;14.00;99.90;;;;;;5050203;28;20198;-67
2022/04/13 01:24:49;;;;;;;4.77;3.23;;;13.90;99.90;;;;;;5053603;28;20185;-67
2022/04/13 01:27:16;;;;;;;3.03;2.70;;;13.70;99.90;;;;;;5053977;28;20823;-67
2022/04/13 01:29:42;;;;;;;7.97;3.57;;;13.50;99.90;;;;;;5054023;28;20166;-67
2022/04/13 01:32:10;;;;;;;3.50;3.20;;;13.40;99.90;;;;;;5053202;28;20519;-67
2022/04/13 01:34:36;;;;;;;3.53;2.90;;;13.40;99.90;;;;;;5053476;28;20413;-67
2022/04/13 01:37:02;;;;;;;6.00;3.50;;;13.40;99.90;;;;;;5051673;28;20405;-67
2022/04/13 01:39:28;;;;;;;2.83;2.63;;;13.50;99.90;;;;;;5050289;28;20194;-67
2022/04/13 01:41:54;;;;;;;4.53;3.40;;;13.50;99.90;;;;;;5052794;28;20445;-67
2022/04/13 01:44:19;;;;;;;2.80;2.47;;;13.50;99.90;;;;;;5052998;28;20494;-67
2022/04/13 01:46:45;;;;;;;4.83;3.20;;;13.40;99.90;;;;;;5053909;28;20180;-67
2022/04/13 01:49:11;;;;;;;4.70;2.87;;;13.50;99.90;;;;;;5052597;28;20221;-67
2022/04/13 01:51:36;;;;;;;5.57;3.53;;;13.50;99.90;;;;;;5038326;28;20222;-68
2022/04/13 01:54:02;;;;;;;3.23;2.93;;;13.60;99.90;;;;;;5046952;28;20179;-68
2022/04/13 01:56:28;;;;;;;4.00;3.60;;;13.60;99.90;;;;;;5053748;28;20231;-67
2022/04/13 01:58:53;;;;;;;3.93;3.47;;;13.40;99.90;;;;;;5035556;28;20218;-67
2022/04/13 02:01:19;;;;;;;6.10;3.67;;;13.20;99.90;;;;;;5052802;28;20188;-68
2022/04/13 02:03:45;;;;;;;3.60;3.30;;;13.10;99.90;;;;;;5034328;28;20259;-68
2022/04/13 02:06:11;;;;;;;4.37;3.20;;;13.10;99.90;;;;;;5032316;28;20260;-67
2022/04/13 02:08:36;;;;;;;7.43;4.10;;;13.00;99.90;;;;;;5032338;28;20540;-67
2022/04/13 02:11:02;;;;;;;4.10;3.10;;;12.80;99.90;;;;;;5033475;28;20624;-67
2022/04/13 02:13:28;;;;;;;5.03;3.17;;;12.90;99.90;;;;;;5015527;28;20556;-67
2022/04/13 02:15:54;;;;;;;3.57;3.27;;;12.90;99.90;;;;;;5033250;28;20398;-67
2022/04/13 02:18:20;;;;;;;5.70;3.87;;;13.00;99.90;;;;;;5049591;28;20526;-68
2022/04/13 02:20:45;;;;;;;4.20;3.77;;;12.80;99.90;;;;;;5053161;28;20181;-67
2022/04/13 02:23:11;;;;;;;3.97;3.50;;;12.60;99.90;;;;;;5042906;28;20196;-67
2022/04/13 02:25:37;;;;;;;7.17;4.00;;;12.60;99.90;;;;;;5015687;28;20186;-68
2022/04/13 02:28:06;;;;;;;4.50;3.13;;;12.60;99.90;;;;;;5033436;28;20245;-67
2022/04/13 02:30:32;;;;;;;5.70;3.70;;;12.60;99.90;;;;;;5032840;28;20666;-68
2022/04/13 02:32:58;;;;;;;4.73;3.50;;;12.50;99.90;;;;;;5032027;28;20445;-68
2022/04/13 02:35:24;;;;;;;5.10;3.90;;;12.50;99.90;;;;;;5032936;28;20254;-67
2022/04/13 02:37:50;;;;;;;5.10;3.90;;;12.50;99.90;;;;;;5032399;28;20846;-67
2022/04/13 02:40:16;;;;;;;3.80;3.30;;;12.50;99.90;;;;;;5015127;28;20222;-67
2022/04/13 02:42:42;;;;;;;3.30;3.00;;;12.60;99.90;;;;;;5044395;28;20198;-68
2022/04/13 02:45:08;;;;;;;4.63;3.53;;;12.70;99.90;;;;;;5052720;28;20414;-67
2022/04/13 02:47:35;;;;;;;5.17;3.93;;;12.70;99.90;;;;;;5033619;28;20168;-68
2022/04/13 02:50:01;;;;;;;4.07;3.10;;;12.70;99.90;;;;;;5051510;28;20811;-67
2022/04/13 02:52:29;;;;;;;3.53;3.23;;;12.80;99.90;;;;;;5045053;28;20468;-67
2022/04/13 02:54:56;;;;;;;5.47;4.17;;;12.70;99.90;;;;;;5031377;28;20412;-68
2022/04/13 02:57:22;;;;;;;3.80;3.03;;;12.60;99.90;;;;;;5032820;28;20485;-68
2022/04/13 02:59:48;;;;;;;3.03;2.83;;;12.70;99.90;;;;;;5047146;28;20915;-67
2022/04/13 03:02:17;;;;;;;3.60;3.10;;;12.60;99.90;;;;;;5053716;28;20561;-68
2022/04/13 03:04:45;;;;;;;6.33;3.80;;;12.50;99.90;;;;;;5056617;28;20412;-67
2022/04/13 03:07:12;;;;;;;3.07;2.77;;;12.40;99.90;;;;;;5039169;28;20876;-67
2022/04/13 03:09:38;;;;;;;5.07;3.53;;;12.30;99.90;;;;;;5056906;28;20404;-67
2022/04/13 03:12:05;;;;;;;6.10;3.60;;;12.40;99.90;;;;;;5056099;28;20456;-67
2022/04/13 03:14:30;;;;;;;5.90;4.10;;;12.40;99.90;;;;;;5056249;28;20413;-67
2022/04/13 03:16:56;;;;;;;8.10;3.50;;;12.40;99.90;;;;;;5056511;28;20798;-67
2022/04/13 03:19:21;;;;;;;4.03;3.63;;;12.50;99.90;;;;;;5055739;28;20180;-67
2022/04/13 03:21:51;;;;;;;6.17;3.60;;;12.60;99.90;;;;;;5055511;28;20198;-67
2022/04/13 03:24:21;;;;;;;3.80;3.43;;;12.60;99.90;;;;;;5035030;28;20248;-66
2022/04/13 03:26:46;;;;;;;4.10;3.00;;;12.60;99.90;;;;;;5036623;28;20404;-66
2022/04/13 03:29:12;;;;;;;4.30;3.20;;;12.60;99.90;;;;;;5036522;28;20406;-66
2022/04/13 03:31:37;;;;;;;3.90;3.40;;;12.60;99.90;;;;;;5038826;28;20218;-66
2022/04/13 03:34:03;;;;;;;3.63;3.33;;;12.50;99.90;;;;;;5056294;28;20238;-67
2022/04/13 03:39:01;;;;;;;7.33;3.70;;;12.40;99.90;;;;;;5051914;22;20230;-70
2022/04/13 03:41:27;;;;;;;4.47;3.80;;;12.30;99.90;;;;;;5015981;28;20413;-70
2022/04/13 03:43:52;;;;;;;8.00;4.23;;;12.30;99.90;;;;;;5016516;28;20168;-70
2022/04/13 03:46:18;;;;;;;7.40;3.97;;;12.40;99.90;;;;;;5016600;28;20205;-70
2022/04/13 03:48:43;;;;;;;5.57;4.10;;;12.30;99.90;;;;;;5034290;28;20190;-71
2022/04/13 03:51:09;;;;;;;4.93;3.97;;;12.20;99.90;;;;;;5037411;28;20222;-70
2022/04/13 03:53:34;;;;;;;3.80;3.50;;;12.30;99.90;;;;;;5040998;28;20171;-70
2022/04/13 03:56:00;;;;;;;3.67;3.33;;;12.40;99.90;;;;;;5035618;28;20202;-70
2022/04/13 03:58:27;;;;;;;4.03;3.67;;;12.40;99.90;;;;;;5049592;28;20194;-70
2022/04/13 04:00:53;;;;;;;4.20;3.33;;;12.30;99.90;;;;;;5055454;28;20261;-70
2022/04/13 04:03:18;;;;;;;3.93;3.53;;;12.20;99.90;;;;;;5051692;28;20845;-71
2022/04/13 04:05:44;;;;;;;4.07;3.60;;;12.20;99.90;;;;;;5054516;28;20175;-71
2022/04/13 04:08:10;;;;;;;4.30;3.90;;;12.20;99.90;;;;;;5055238;28;20187;-70
2022/04/13 04:10:36;;;;;;;4.77;3.93;;;12.20;99.90;;;;;;5054863;28;20173;-70
2022/04/13 04:13:01;;;;;;;5.87;3.80;;;12.20;99.90;;;;;;5054927;28;20170;-70
2022/04/13 04:15:27;;;;;;;6.07;4.50;;;12.20;99.90;;;;;;5055252;28;20429;-71
2022/04/13 04:17:52;;;;;;;8.37;4.20;;;12.20;99.90;;;;;;5036329;28;20669;-70
2022/04/13 04:20:18;;;;;;;4.23;3.83;;;12.20;99.90;;;;;;5055113;28;20175;-70
2022/04/13 04:22:43;;;;;;;4.73;3.87;;;12.10;99.90;;;;;;5055392;28;20167;-70
2022/04/13 04:25:09;;;;;;;4.33;3.50;;;12.00;99.90;;;;;;5055163;28;20164;-70
2022/04/13 04:27:35;;;;;;;4.37;3.50;;;12.00;99.90;;;;;;5054500;28;20233;-70
2022/04/13 04:30:01;;;;;;;4.47;3.70;;;12.10;99.90;;;;;;5036990;28;20174;-71
2022/04/13 04:32:27;;;;;;;7.10;5.40;;;12.10;99.90;;;;;;5054770;28;20183;-71
2022/04/13 04:34:53;;;;;;;9.40;5.70;;;12.00;99.90;;;;;;5054580;28;20462;-73
2022/04/13 04:37:18;;;;;;;6.37;5.60;;;12.00;99.90;;;;;;5054607;28;20198;-72
2022/04/13 04:39:44;;;;;;;6.70;5.77;;;12.00;99.90;;;;;;5055318;28;20459;-72
2022/04/13 04:42:10;;;;;;;7.70;6.00;;;11.90;99.90;;;;;;5055510;28;20588;-72
2022/04/13 04:44:36;;;;;;;6.93;6.03;;;12.00;99.90;;;;;;5055556;28;20173;-71
2022/04/13 04:47:01;;;;;;;6.97;5.60;;;12.00;99.90;;;;;;5053923;28;20194;-72
2022/04/13 04:49:27;;;;;;;6.90;4.50;;;12.00;99.90;;;;;;5054403;28;20574;-72
2022/04/13 04:51:52;;;;;;;5.80;4.97;;;12.10;99.90;;;;;;5053653;28;20200;-72
2022/04/13 04:54:18;;;;;;;5.30;4.80;;;11.90;99.90;;;;;;5017008;28;20178;-72
2022/04/13 04:56:43;;;;;;;4.80;4.33;;;11.90;99.90;;;;;;5016303;28;20172;-72
2022/04/13 04:59:09;;;;;;;6.30;4.50;;;12.10;99.90;;;;;;5054111;28;20193;-72
2022/04/13 05:01:35;;;;;;;6.97;4.57;;;12.10;99.90;;;;;;5037127;28;20178;-72
2022/04/13 05:04:00;;;;;;;6.83;5.10;;;12.00;99.90;;;;;;5033536;28;20178;-72
2022/04/13 05:06:29;;;;;;;5.27;4.73;;;11.90;99.90;;;;;;5016248;28;20169;-71
2022/04/13 05:08:55;;;;;;;5.60;4.50;;;11.90;99.90;;;;;;5016449;28;20187;-71
2022/04/13 05:11:22;;;;;;;4.33;3.93;;;11.90;99.90;;;;;;5033669;28;20946;-71
2022/04/13 05:13:48;;;;;;;5.23;4.00;;;12.00;99.90;;;;;;5034474;28;20396;-72
2022/04/13 05:16:15;;;;;;;5.13;3.90;;;12.00;99.90;;;;;;5015929;28;20413;-71
2022/04/13 05:18:42;;;;;;;5.80;3.90;;;12.10;99.90;;;;;;5033459;28;20434;-71
2022/04/13 05:21:08;;;;;;;4.90;3.60;;;12.20;99.90;;;;;;5038037;28;20415;-68
2022/04/13 05:23:35;;;;;;;4.27;3.60;;;12.30;99.90;;;;;;5032813;28;20417;-69
2022/04/13 05:26:01;;;;;;;3.93;3.53;;;12.30;99.90;;;;;;5016035;28;20399;-70
2022/04/13 05:28:27;;;;;;;4.63;3.67;;;12.30;99.90;;;;;;5041712;28;20508;-70
2022/04/13 05:30:52;;;;;;;4.40;4.00;;;12.40;99.90;;;;;;5054093;28;20193;-70
2022/04/13 05:33:18;;;;;;;6.13;3.60;;;12.40;99.90;;;;;;5054100;28;20250;-70
2022/04/13 05:35:45;;;;;;;4.03;3.70;;;12.50;99.90;;;;;;5053768;28;20632;-70
2022/04/13 05:38:10;;;;;;;6.90;3.60;;;12.60;99.90;;;;;;5053531;28;20209;-70
2022/04/13 05:40:36;;;;;;;5.80;4.20;;;12.70;99.90;;;;;;5053678;28;20479;-70
2022/04/13 05:43:02;;;;;;;5.20;3.80;;;12.90;99.90;;;;;;5054083;28;20639;-70
2022/04/13 05:45:27;;;;;;;5.30;3.40;;;13.00;99.90;;;;;;5054506;28;20170;-71
2022/04/13 05:47:53;;;;;;;9.97;3.97;;;13.00;99.90;;;;;;5052335;28;20190;-71
2022/04/13 05:50:18;;;;;;;4.83;3.60;;;13.20;99.90;;;;;;5053595;28;20734;-71
2022/04/13 05:52:45;;;;;;;5.50;3.37;;;13.30;99.90;;;;;;5046914;28;20669;-72
2022/04/13 05:55:11;;;;;;;4.40;3.37;;;13.50;99.90;;;;;;5035620;28;20469;-71
2022/04/13 05:57:37;;;;;;;6.60;4.20;;;13.60;99.90;;;;;;5045198;28;20204;-71
2022/04/13 06:00:04;;;;;;;6.07;3.90;;;13.70;99.90;;;;;;5015908;28;20856;-71
2022/04/13 06:02:30;;;;;;;5.27;3.43;;;13.80;99.90;;;;;;5037536;28;20198;-71
2022/04/13 06:04:55;;;;;;;5.90;3.43;;;13.80;99.90;;;;;;5049144;28;20448;-72
2022/04/13 06:07:21;;;;;;;7.80;4.10;;;14.00;99.90;;;;;;5048776;28;20199;-72
2022/04/13 06:09:47;;;;;;;4.70;3.63;;;14.00;99.90;;;;;;5034816;28;20534;-70
2022/04/13 06:12:20;;;;;;;6.37;4.30;;;14.10;99.90;;;;;;5053393;28;20916;-70
2022/04/13 06:14:45;;;;;;;4.00;3.57;;;14.20;99.90;;;;;;5053325;28;20633;-69
2022/04/13 06:17:11;;;;;;;4.60;4.20;;;14.40;99.90;;;;;;5052356;28;20437;-69
2022/04/13 06:19:37;;;;;;;7.63;4.43;;;14.50;99.90;;;;;;5052372;28;20710;-69
2022/04/13 06:22:02;;;;;;;6.80;3.23;;;14.60;99.90;;;;;;5053523;28;20201;-70
2022/04/13 06:24:28;;;;;;;7.23;4.30;;;14.80;99.90;;;;;;5052738;28;20686;-68
2022/04/13 06:26:53;;;;;;;4.67;4.10;;;14.90;99.90;;;;;;5052426;28;20186;-70
2022/04/13 06:29:19;;;;;;;6.20;4.97;;;15.00;99.90;;;;;;5034778;28;20188;-69
2022/04/13 06:31:44;;;;;;;6.83;4.33;;;15.10;99.90;;;;;;5045968;28;20203;-69
2022/04/13 06:34:10;;;;;;;5.13;4.20;;;15.20;99.90;;;;;;5032437;28;20167;-68
2022/04/13 06:36:36;;;;;;;8.30;5.13;;;15.30;99.90;;;;;;5039481;28;20235;-68
2022/04/13 06:39:01;;;;;;;4.67;3.80;;;15.40;99.90;;;;;;5052644;28;20211;-68
2022/04/13 06:41:27;;;;;;;4.03;3.67;;;15.60;99.90;;;;;;5051361;28;20771;-68
2022/04/13 06:43:53;;;;;;;6.00;3.77;;;15.70;99.90;;;;;;5034616;28;20902;-68
2022/04/13 06:46:19;;;;;;;7.70;4.67;;;15.80;99.90;;;;;;5052934;28;20174;-68
2022/04/13 06:48:45;;;;;;;5.37;4.43;;;16.00;99.90;;;;;;5051808;28;20256;-68
2022/04/13 06:51:11;;;;;;;7.27;4.43;;;16.10;99.90;;;;;;5051607;28;20464;-67
2022/04/13 06:53:36;;;;;;;8.17;5.80;;;16.20;99.90;;;;;;5039582;28;20417;-68
2022/04/13 06:56:02;;;;;;;8.87;7.00;;;16.20;99.90;;;;;;5032493;28;20167;-68
2022/04/13 06:58:27;;;;;;;8.30;5.47;;;16.30;99.90;;;;;;5046068;28;20202;-68
2022/04/13 07:00:57;;;;;;;6.10;4.97;;;16.20;99.90;;;;;;5049308;28;20214;-68
2022/04/13 07:03:23;;;;;;;10.50;5.40;;;16.40;99.90;;;;;;5039412;28;20198;-71
2022/04/13 07:05:49;;;;;;;8.70;5.97;;;16.60;99.90;;;;;;5051677;28;20409;-69
2022/04/13 07:08:15;;;;;;;9.87;4.80;;;16.80;99.90;;;;;;5052208;28;20785;-71
2022/04/13 07:10:40;;;;;;;9.13;5.10;;;16.90;99.90;;;;;;5051913;28;20228;-68
2022/04/13 07:13:07;;;;;;;6.43;5.40;;;17.10;99.90;;;;;;5052702;28;20592;-69
2022/04/13 07:15:33;;;;;;;8.30;5.67;;;17.10;99.90;;;;;;5052672;28;20535;-69
2022/04/13 07:17:58;;;;;;;11.43;5.60;;;17.20;99.90;;;;;;5033339;28;20433;-70
2022/04/13 07:20:24;;;;;;;8.50;5.43;;;17.20;99.90;;;;;;5051889;28;20660;-67
2022/04/13 07:22:52;;;;;;;11.00;5.80;;;17.30;99.90;;;;;;5037401;28;20257;-67
2022/04/13 07:25:19;;;;;;;6.57;5.47;;;17.40;99.90;;;;;;5032519;28;20640;-69
2022/04/13 07:27:46;;;;;;;9.67;6.27;;;17.50;99.90;;;;;;5022278;28;20532;-67
2022/04/13 07:30:13;;;;;;;9.03;6.60;;;16.90;99.90;;;;;;5051583;28;20957;-70
2022/04/13 07:32:39;;;;;;;9.73;6.60;;;16.40;99.90;;;;;;5052065;28;20451;-67
2022/04/13 07:35:05;;;;;;;8.67;6.60;;;16.30;99.90;;;;;;5051822;28;20421;-68
2022/04/13 07:37:32;;;;;;;8.47;6.87;;;16.20;99.90;;;;;;5047846;28;20948;-69
2022/04/13 07:39:59;;;;;;;12.27;6.40;;;16.50;99.90;;;;;;5032938;28;20429;-68
2022/04/13 07:42:28;;;;;;;13.80;6.97;;;16.90;99.90;;;;;;5033679;28;20425;-68
2022/04/13 07:44:54;;;;;;;12.43;6.87;;;17.30;99.90;;;;;;5052102;28;20518;-69
2022/04/13 07:47:20;;;;;;;8.03;6.90;;;17.40;99.90;;;;;;5048730;28;20437;-68
2022/04/13 07:49:46;;;;;;;12.80;7.10;;;17.20;99.90;;;;;;5053936;28;20405;-66
2022/04/13 07:52:13;;;;;;;11.90;6.77;;;17.00;99.90;;;;;;5051031;28;20519;-68
2022/04/13 07:54:40;;;;;;;7.47;6.13;;;17.00;99.90;;;;;;5035275;28;20402;-65
2022/04/13 07:57:06;;;;;;;7.17;5.90;;;17.00;99.90;;;;;;5037496;28;20440;-67
2022/04/13 07:59:32;;;;;;;10.50;7.20;;;17.10;99.90;;;;;;5054987;28;20523;-66
2022/04/13 08:01:58;;;;;;;7.47;6.70;;;16.90;99.90;;;;;;5053730;28;20433;-68
2022/04/13 08:04:23;;;;;;;10.70;7.17;;;17.10;99.90;;;;;;5036830;28;20175;-68
2022/04/13 08:06:50;;;;;;;7.73;6.63;;;17.20;99.90;;;;;;5054456;28;20205;-69
2022/04/13 08:09:15;;;;;;;11.07;7.00;;;17.20;99.90;;;;;;5052076;28;20178;-68
2022/04/13 08:11:41;;;;;;;9.03;7.07;;;17.20;99.90;;;;;;5045518;28;20449;-67
2022/04/13 08:14:07;;;;;;;7.93;7.00;;;17.20;99.90;;;;;;5053306;28;20171;-67
2022/04/13 08:16:33;;;;;;;11.60;7.30;;;17.30;99.90;;;;;;5054481;28;20174;-68
2022/04/13 08:18:58;;;;;;;10.33;7.23;;;17.40;99.90;;;;;;5054094;28;20437;-66
2022/04/13 08:21:24;;;;;;;10.23;6.70;;;17.40;99.90;;;;;;5054995;28;20608;-68
2022/04/13 08:23:49;;;;;;;10.10;6.87;;;17.50;99.90;;;;;;5054826;28;20539;-69
2022/04/13 08:26:15;;;;;;;9.97;7.10;;;17.80;99.90;;;;;;5054791;28;20166;-69
2022/04/13 08:28:41;;;;;;;7.70;6.20;;;18.10;99.90;;;;;;5054795;28;20252;-69
2022/04/13 08:31:09;;;;;;;9.40;6.90;;;18.10;99.90;;;;;;5054945;28;20198;-69
2022/04/13 08:33:36;;;;;;;10.50;6.20;;;18.30;99.90;;;;;;5054433;28;20155;-69
2022/04/13 08:36:02;;;;;;;7.73;6.63;;;18.40;99.90;;;;;;5054594;28;20405;-69
2022/04/13 08:38:28;;;;;;;8.43;5.97;;;18.60;99.90;;;;;;5054553;28;20445;-69
2022/04/13 08:41:01;;;;;;;6.80;5.57;;;18.60;99.90;;;;;;5054865;28;20405;-69
2022/04/13 08:43:33;;;;;;;7.27;4.97;;;18.70;99.90;;;;;;5055663;28;20151;-68
2022/04/13 08:46:00;;;;;;;6.67;5.33;;;18.70;99.90;;;;;;5054922;28;20385;-68
2022/04/13 08:48:26;;;;;;;5.77;4.10;;;18.60;99.90;;;;;;5053338;28;20999;-66
2022/04/13 08:50:59;;;;;;;6.63;4.07;;;18.70;98.00;;;;;;5054219;28;20494;-67
2022/04/13 08:53:29;;;;;;;4.50;3.60;;;18.90;96.60;;;;;;5054234;28;20398;-66
2022/04/13 08:55:57;;;;;;;4.87;3.40;;;19.20;95.20;;;;;;5054337;28;20386;-67
2022/04/13 08:58:58;;;;;;;6.93;4.20;;;19.10;95.60;;;;;;5053323;28;20471;-67
2022/04/13 09:01:41;;;;;;;7.03;3.93;;;19.30;95.40;;;;;;4972196;28;20443;-69
2022/04/13 09:04:10;;;;;;;7.90;3.63;;;19.60;94.60;;;;;;5046820;28;20451;-70
2022/04/13 09:06:38;;;;;;;7.90;4.10;;;19.60;93.70;;;;;;5053470;28;20748;-68
2022/04/13 09:09:08;;;;;;;9.83;4.50;;;19.40;94.50;;;;;;5054304;28;20573;-68
2022/04/13 09:11:38;;;;;;;6.33;4.57;;;19.60;93.50;;;;;;5053504;28;20437;-69
2022/04/13 09:14:05;;;;;;;4.77;3.20;;;19.80;93.70;;;;;;5053937;28;20408;-69
2022/04/13 09:16:32;;;;;;;5.57;2.60;;;19.90;92.90;;;;;;5053876;28;20498;-68
2022/04/13 09:18:57;;;;;;;9.43;4.33;;;19.60;91.80;;;;;;5036062;28;20439;-68
2022/04/13 09:21:25;;;;;;;3.53;2.87;;;19.90;92.20;;;;;;5035977;28;20417;-67
2022/04/13 09:23:51;;;;;;;7.70;2.50;;;20.20;90.30;;;;;;5046744;28;20726;-68
2022/04/13 09:26:19;;;;;;;5.60;2.53;;;20.10;88.50;;;;;;5050030;28;20459;-70
2022/04/13 09:28:45;;;;;;;6.30;2.20;;;20.20;85.40;;;;;;5055567;28;20189;-70
2022/04/13 09:31:10;;;;;;;6.77;2.63;;;20.30;85.30;;;;;;5054677;28;20445;-68
2022/04/13 09:33:36;;;;;;;4.93;2.80;;;20.40;86.50;;;;;;5054468;28;20186;-67
2022/04/13 09:36:02;;;;;;;6.33;3.10;;;20.50;85.70;;;;;;5054474;28;20249;-66
2022/04/13 09:38:28;;;;;;;6.40;3.03;;;20.40;84.10;;;;;;5065172;23;20225;-66
2022/04/13 09:40:54;;;;;;;4.83;2.90;;;20.40;84.80;;;;;;5022639;28;20208;-66
2022/04/13 09:43:24;;;;;;;3.37;2.40;;;20.40;85.50;;;;;;5013800;28;20403;-67
2022/04/13 09:45:51;;;;;;;5.30;2.93;;;20.50;83.70;;;;;;5013943;28;20407;-66
2022/04/13 09:48:22;;;;;;;7.27;3.60;;;20.40;83.80;;;;;;5020212;28;20488;-67
2022/04/13 09:50:51;;;;;;;5.53;3.30;;;20.50;83.20;;;;;;5033488;28;20509;-66
2022/04/13 09:53:19;;;;;;;4.93;2.90;;;21.00;80.40;;;;;;5033425;28;20757;-66
2022/04/13 09:55:52;;;;;;;5.77;3.20;;;21.30;77.90;;;;;;5033424;28;20791;-66
2022/04/13 09:58:19;;;;;;;5.37;3.07;;;21.30;79.40;;;;;;5033338;28;20582;-66
2022/04/13 10:00:47;;;;;;;6.67;2.90;;;21.20;82.80;;;;;;5033775;28;20493;-66
2022/04/13 10:03:14;;;;;;;5.97;3.00;;;21.40;82.50;;;;;;5032915;28;20418;-67
2022/04/13 10:05:44;;;;;;;6.60;3.10;;;21.40;82.90;;;;;;5033486;28;20408;-66
2022/04/13 10:08:12;;;;;;;5.90;2.90;;;21.30;83.50;;;;;;5033397;28;20422;-67
2022/04/13 10:10:46;;;;;;;17.30;3.10;;;21.50;82.10;;;;;;5032937;28;20410;-66
2022/04/13 10:13:28;;;;;;;2.70;2.27;;;21.70;79.30;;;;;;5033526;28;20390;-67
2022/04/13 10:15:58;;;;;;;6.30;2.73;;;21.70;78.70;;;;;;5033949;28;20394;-67
2022/04/13 10:18:24;;;;;;;3.30;2.77;;;22.00;78.90;;;;;;5032672;28;20479;-66
2022/04/13 10:20:50;;;;;;;8.80;3.10;;;22.30;78.10;;;;;;5033251;28;20800;-66
2022/04/13 10:23:16;;;;;;;5.70;2.50;;;22.00;79.80;;;;;;5032626;28;20761;-67
2022/04/13 10:25:43;;;;;;;4.80;2.80;;;22.10;80.30;;;;;;5033186;28;20167;-66
2022/04/13 10:28:12;;;;;;;5.40;2.90;;;22.40;78.50;;;;;;5032975;28;20414;-66
2022/04/13 10:30:39;;;;;;;7.80;3.20;;;22.30;79.20;;;;;;5032967;28;20765;-66
2022/04/13 10:33:14;;;;;;;5.93;3.43;;;22.10;79.10;;;;;;5032624;28;20474;-67
2022/04/13 10:35:45;;;;;;;5.43;2.90;;;22.50;80.30;;;;;;5032904;28;20493;-66
2022/04/13 10:38:14;;;;;;;7.70;3.00;;;22.70;76.60;;;;;;5033001;28;20473;-67
2022/04/13 10:40:42;;;;;;;6.00;3.00;;;22.70;79.00;;;;;;5033175;28;20378;-66
2022/04/13 10:43:11;;;;;;;7.83;3.40;;;23.00;78.50;;;;;;5033124;28;20406;-66
2022/04/13 10:45:45;;;;;;;6.40;3.47;;;23.20;80.00;;;;;;5033683;28;20413;-67
2022/04/13 10:48:11;;;;;;;8.13;4.00;;;23.30;78.70;;;;;;5031429;28;20435;-67
2022/04/13 10:50:59;;;;;;;6.20;3.97;;;23.20;81.00;;;;;;5032371;28;20432;-67
2022/04/13 10:53:29;;;;;;;4.57;3.40;;;23.70;79.40;;;;;;5033186;28;20386;-67
2022/04/13 10:56:03;;;;;;;4.50;3.30;;;24.70;77.40;;;;;;5033171;28;20465;-67
2022/04/13 10:58:32;;;;;;;7.60;3.50;;;26.00;74.40;;;;;;5032762;28;20428;-67
2022/04/13 11:01:03;;;;;;;4.73;3.53;;;26.00;73.40;;;;;;5033240;28;20481;-67
2022/04/13 11:03:34;;;;;;;6.40;3.97;;;25.90;73.50;;;;;;5032647;28;20703;-66
2022/04/13 11:06:00;;;;;;;5.97;4.20;;;25.80;73.60;;;;;;5032995;28;20391;-66
2022/04/13 11:08:38;;;;;;;9.63;3.90;;;27.30;71.20;;;;;;5032746;28;20480;-67
2022/04/13 11:11:05;;;;;;;6.93;3.93;;;28.00;67.80;;;;;;5032873;28;20441;-67
2022/04/13 11:13:33;;;;;;;8.20;3.77;;;27.30;68.50;;;;;;5035226;28;20411;-67
2022/04/13 11:16:25;;;;;;;8.20;3.30;;;28.50;66.80;;;;;;5032548;28;20490;-67
2022/04/13 11:19:05;;;;;;;5.80;2.90;;;28.00;65.00;;;;;;5032166;28;20925;-67
2022/04/13 11:21:33;;;;;;;3.60;3.23;;;27.50;64.70;;;;;;5032883;28;20397;-67
2022/04/13 11:23:58;;;;;;;7.50;3.10;;;27.20;64.80;;;;;;5035751;28;20406;-67
2022/04/13 11:26:36;;;;;;;10.20;4.07;;;27.10;64.70;;;;;;5036941;28;20493;-67
2022/04/13 11:29:21;;;;;;;6.27;3.23;;;27.50;63.90;;;;;;5036656;28;20585;-65
2022/04/13 11:32:02;;;;;;;4.30;2.90;;;26.50;65.10;;;;;;5036187;28;20437;-69
2022/04/13 11:34:31;;;;;;;7.93;2.57;;;26.50;64.20;;;;;;5036019;28;20902;-67
2022/04/13 11:37:02;;;;;;;4.50;2.73;;;27.00;62.50;;;;;;5036660;28;20420;-66
2022/04/13 11:39:43;;;;;;;4.93;2.63;;;27.20;61.10;;;;;;5035971;28;20448;-67
2022/04/13 11:42:21;;;;;;;4.50;3.13;;;25.40;64.40;;;;;;5035492;28;20928;-67
2022/04/13 11:44:59;;;;;;;5.60;3.00;;;25.80;64.70;;;;;;5036170;28;20954;-68
2022/04/13 11:47:45;;;;;;;4.63;2.10;;;26.30;63.50;;;;;;5036049;28;20391;-68
2022/04/13 11:50:13;;;;;;;4.80;3.30;;;27.00;62.10;;;;;;5015522;28;20935;-68
2022/04/13 11:52:58;;;;;;;4.70;2.60;;;27.50;59.50;;;;;;5016008;28;20449;-68
2022/04/13 11:55:26;;;;;;;2.90;2.37;;;27.90;60.80;;;;;;5016321;28;20403;-68
2022/04/13 11:57:59;;;;;;;5.40;2.83;;;28.70;59.50;;;;;;4998667;28;20449;-67
2022/04/13 12:00:44;;;;;;;7.13;2.63;;;29.60;56.20;;;;;;5016195;28;20391;-66
2022/04/13 12:03:24;;;;;;;6.40;2.57;;;28.80;56.40;;;;;;5015988;28;20421;-67
2022/04/13 12:05:55;;;;;;;3.20;2.30;;;28.40;56.00;;;;;;5016149;28;20489;-67
2022/04/13 12:08:32;;;;;;;8.30;2.57;;;27.00;57.20;;;;;;5015998;28;20429;-67
2022/04/13 12:11:02;;;;;;;3.17;2.20;;;27.50;58.00;;;;;;5015752;28;20446;-66
2022/04/13 12:13:34;;;;;;;3.93;1.83;;;28.30;55.20;;;;;;5015851;28;20484;-67
2022/04/13 12:16:01;;;;;;;4.00;2.40;;;27.00;55.90;;;;;;5016020;28;20395;-67
2022/04/13 12:18:29;;;;;;;12.27;3.43;;;27.20;56.00;;;;;;5022481;28;20509;-69
2022/04/13 12:21:09;;;;;;;4.60;2.30;;;27.50;55.60;;;;;;5035515;28;20815;-68
2022/04/13 12:23:37;;;;;;;5.13;2.33;;;26.70;56.40;;;;;;5035373;28;20409;-69
2022/04/13 12:26:03;;;;;;;3.93;2.17;;;26.80;57.00;;;;;;5035202;28;20914;-67
2022/04/13 12:28:29;;;;;;;4.97;2.70;;;27.00;56.40;;;;;;5035415;28;20426;-70
2022/04/13 12:31:10;;;;;;;4.93;2.10;;;28.00;55.10;;;;;;5033479;28;20422;-69
2022/04/13 12:33:39;;;;;;;5.27;1.93;;;29.90;52.30;;;;;;5034546;28;20703;-70
2022/04/13 12:36:10;;;;;;;4.63;2.00;;;29.70;53.30;;;;;;5035009;28;20434;-69
2022/04/13 12:38:42;;;;;;;6.60;2.30;;;30.50;50.30;;;;;;5035108;28;20872;-69
2022/04/13 12:41:15;;;;;;;5.57;2.47;;;30.00;50.40;;;;;;5035286;28;20402;-69
2022/04/13 12:43:56;;;;;;;7.73;2.37;;;29.70;51.70;;;;;;5035517;28;20398;-69
2022/04/13 12:46:23;;;;;;;4.40;1.97;;;28.50;52.00;;;;;;5034969;28;20402;-70
2022/04/13 12:48:54;;;;;;;4.57;2.27;;;27.90;53.30;;;;;;5033915;28;20943;-69
2022/04/13 12:51:20;;;;;;;3.20;2.17;;;27.90;53.50;;;;;;5016800;28;20452;-70